createdAt,value
2023-02-15T00:02:03.928Z,7.03
2023-02-15T00:04:51.493Z,7.15
2023-02-15T00:07:20.206Z,6.80
2023-02-15T00:09:47.795Z,6.75
2023-02-15T00:12:16.034Z,6.00
2023-02-15T00:14:43.572Z,6.20
2023-02-15T01:31:07.564Z,5.82
2023-02-15T03:06:02.263Z,6.20
2023-02-15T03:08:41.578Z,6.22
2023-02-15T03:11:49.703Z,6.72
2023-02-15T04:55:11.797Z,12.50
2023-02-15T04:58:07.596Z,17.25
2023-02-15T05:00:35.131Z,18.02
2023-02-15T05:03:02.182Z,13.32
2023-02-15T05:05:29.072Z,17.10
2023-02-15T05:07:56.670Z,16.20
2023-02-15T05:10:27.316Z,17.23
2023-02-15T05:13:09.679Z,19.85
2023-02-15T05:15:44.835Z,15.98
2023-02-15T05:18:12.497Z,15.18
2023-02-15T05:23:46.901Z,20.00
2023-02-15T05:26:39.188Z,19.13
2023-02-15T05:32:18.237Z,17.08
2023-02-15T05:35:23.943Z,14.07
2023-02-15T05:37:51.994Z,16.33
2023-02-15T05:40:21.748Z,18.13
2023-02-15T05:46:06.914Z,13.35
2023-02-15T05:48:34.693Z,12.13
2023-02-15T05:51:23.897Z,13.55
2023-02-15T05:53:59.957Z,11.35
2023-02-15T05:56:26.779Z,9.80
2023-02-15T05:58:55.670Z,11.15
2023-02-15T06:01:55.350Z,13.95
2023-02-15T06:04:20.421Z,17.63
2023-02-15T06:07:03.971Z,15.23
2023-02-15T06:09:30.885Z,15.95
2023-02-15T06:14:44.423Z,11.52
2023-02-15T06:17:19.746Z,12.68
2023-02-15T06:19:46.476Z,8.75
2023-02-15T06:22:18.299Z,19.50
2023-02-15T06:24:47.999Z,14.32
2023-02-15T06:34:11.415Z,21.25
2023-02-15T06:36:59.615Z,17.40
2023-02-15T06:39:29.674Z,18.63
2023-02-15T06:42:27.776Z,19.02
2023-02-15T06:48:01.702Z,21.40
2023-02-15T06:50:32.166Z,21.23
2023-02-15T06:52:59.576Z,25.85
2023-02-15T06:55:27.019Z,33.15
2023-02-15T06:57:54.176Z,37.17
2023-02-15T07:00:23.683Z,33.88
2023-02-15T07:03:14.581Z,30.52
2023-02-15T07:05:44.808Z,32.15
2023-02-15T07:08:12.059Z,29.25
2023-02-15T07:10:45.582Z,24.48
2023-02-15T07:13:12.364Z,21.95
2023-02-15T07:15:40.708Z,20.10
2023-02-15T07:18:07.934Z,20.88
2023-02-15T07:20:37.645Z,20.88
2023-02-15T07:23:06.611Z,25.45
2023-02-15T07:25:33.805Z,27.70
2023-02-15T07:28:02.726Z,24.52
2023-02-15T07:30:30.391Z,24.30
2023-02-15T07:33:17.398Z,25.42
2023-02-15T07:35:55.290Z,25.55
2023-02-15T07:38:23.021Z,26.13
2023-02-15T07:40:49.933Z,25.55
2023-02-15T07:43:17.128Z,23.98
2023-02-15T07:45:44.876Z,25.48
2023-02-15T07:48:11.668Z,25.60
2023-02-15T07:50:38.719Z,26.58
2023-02-15T07:53:05.674Z,26.27
2023-02-15T07:55:32.708Z,26.80
2023-02-15T07:58:00.853Z,27.92
2023-02-15T08:00:28.146Z,28.17
2023-02-15T08:03:15.280Z,26.88
2023-02-15T08:05:44.186Z,20.95
2023-02-15T08:08:30.846Z,18.25
2023-02-15T08:11:26.402Z,15.90
2023-02-15T08:13:57.398Z,14.82
2023-02-15T08:16:43.052Z,16.83
2023-02-15T08:19:17.986Z,17.27
2023-02-15T08:21:51.124Z,18.35
2023-02-15T08:24:20.494Z,17.92
2023-02-15T08:26:48.807Z,16.60
2023-02-15T08:29:21.313Z,17.75
2023-02-15T08:31:48.614Z,16.17
2023-02-15T08:34:20.318Z,17.95
2023-02-15T08:36:50.809Z,20.15
2023-02-15T08:39:18.479Z,22.40
2023-02-15T08:41:47.588Z,19.85
2023-02-15T08:44:17.857Z,21.02
2023-02-15T08:46:46.769Z,18.15
2023-02-15T08:49:19.581Z,21.08
2023-02-15T08:51:47.632Z,19.92
2023-02-15T08:54:18.525Z,17.65
2023-02-15T08:56:46.470Z,17.23
2023-02-15T08:59:24.677Z,17.17
2023-02-15T09:01:53.651Z,16.77
2023-02-15T09:04:21.921Z,15.38
2023-02-15T09:06:50.226Z,16.02
2023-02-15T09:09:20.921Z,19.92
2023-02-15T09:11:53.409Z,21.05
2023-02-15T09:14:24.943Z,19.25
2023-02-15T09:16:53.607Z,22.10
2023-02-15T09:19:22.253Z,18.85
2023-02-15T09:21:50.087Z,16.73
2023-02-15T09:24:18.299Z,16.67
2023-02-15T09:26:47.699Z,16.40
2023-02-15T09:29:16.546Z,16.75
2023-02-15T09:31:46.511Z,15.30
2023-02-15T09:34:15.217Z,16.30
2023-02-15T09:36:43.276Z,16.75
2023-02-15T09:39:16.363Z,14.82
2023-02-15T09:41:59.137Z,16.33
2023-02-15T09:44:44.684Z,14.00
2023-02-15T09:47:36.685Z,13.50
2023-02-15T09:50:28.220Z,14.65
2023-02-15T09:53:13.469Z,15.13
2023-02-15T09:55:54.100Z,16.63
2023-02-15T09:58:51.784Z,14.77
2023-02-15T10:01:27.743Z,15.95
2023-02-15T10:04:40.762Z,13.95
2023-02-15T10:07:20.939Z,14.90
2023-02-15T10:10:06.948Z,15.35
2023-02-15T10:12:55.710Z,20.95
2023-02-15T10:15:41.009Z,13.68
2023-02-15T10:18:23.277Z,13.65
2023-02-15T10:21:21.808Z,15.52
2023-02-15T10:23:54.639Z,14.48
2023-02-15T10:26:38.419Z,14.93
2023-02-15T10:29:28.894Z,14.77
2023-02-15T10:32:17.455Z,13.57
2023-02-15T10:34:55.853Z,14.18
2023-02-15T10:37:24.096Z,14.35
2023-02-15T10:40:28.372Z,13.95
2023-02-15T10:43:27.749Z,12.95
2023-02-15T10:46:05.602Z,13.57
2023-02-15T10:48:54.397Z,13.55
2023-02-15T10:51:33.519Z,15.75
2023-02-15T10:54:06.879Z,16.15
2023-02-15T10:56:39.760Z,14.80
2023-02-15T10:59:28.248Z,13.48
2023-02-15T11:02:15.358Z,14.18
2023-02-15T11:05:10.160Z,13.85
2023-02-15T11:07:41.797Z,11.82
2023-02-15T11:10:17.389Z,11.77
2023-02-15T11:12:48.280Z,12.07
2023-02-15T11:15:26.209Z,11.45
2023-02-15T11:18:00.768Z,13.32
2023-02-15T11:20:39.297Z,13.43
2023-02-15T11:23:21.869Z,13.48
2023-02-15T11:26:02.388Z,13.05
2023-02-15T11:28:33.223Z,12.02
2023-02-15T11:31:33.386Z,12.10
2023-02-15T11:34:27.229Z,10.52
2023-02-15T11:37:18.026Z,9.82
2023-02-15T11:43:47.040Z,12.02
2023-02-15T11:59:26.415Z,11.32
2023-02-15T12:01:53.296Z,9.93
2023-02-15T12:04:28.563Z,9.95
2023-02-15T12:07:15.866Z,10.23
2023-02-15T12:10:23.669Z,9.98
2023-02-15T12:13:18.701Z,10.98
2023-02-15T12:15:50.271Z,10.02
2023-02-15T12:26:31.687Z,9.43
2023-02-15T12:29:08.277Z,9.95
2023-02-15T12:31:41.839Z,10.02
2023-02-15T12:34:41.570Z,9.13
2023-02-15T12:37:33.772Z,8.90
2023-02-15T12:40:03.099Z,8.40
2023-02-15T12:42:43.843Z,8.68
2023-02-15T12:45:28.568Z,8.35
2023-02-15T12:48:59.857Z,8.30
2023-02-15T12:51:43.249Z,9.02
2023-02-15T12:54:57.709Z,8.45
2023-02-15T13:04:53.004Z,7.38
2023-02-15T13:07:26.664Z,8.90
2023-02-15T13:09:53.761Z,8.75
2023-02-15T13:12:27.632Z,8.15
2023-02-15T13:14:58.788Z,9.02
2023-02-15T13:17:32.382Z,8.35
2023-02-15T13:20:05.030Z,9.93
2023-02-15T13:22:43.830Z,11.02
2023-02-15T13:25:20.895Z,10.88
2023-02-15T13:27:53.390Z,10.15
2023-02-15T13:33:33.632Z,9.70
2023-02-15T13:36:20.651Z,9.85
2023-02-15T13:38:48.531Z,10.55
2023-02-15T13:41:43.663Z,10.18
2023-02-15T13:44:34.800Z,10.38
2023-02-15T13:47:22.633Z,10.23
2023-02-15T13:50:17.619Z,10.02
2023-02-15T13:52:56.635Z,10.57
2023-02-15T13:55:48.401Z,9.43
2023-02-15T13:58:56.948Z,8.82
2023-02-15T14:01:45.557Z,8.70
2023-02-15T14:04:48.122Z,9.35
2023-02-15T14:07:33.230Z,9.82
2023-02-15T14:10:18.107Z,9.30
2023-02-15T14:13:19.016Z,8.57
2023-02-15T14:15:59.296Z,8.75
2023-02-15T14:18:48.188Z,8.20
2023-02-15T14:21:46.145Z,9.02
2023-02-15T14:24:26.526Z,8.85
2023-02-15T14:27:42.044Z,9.85
2023-02-15T14:30:24.999Z,9.80
2023-02-15T14:33:20.169Z,9.20
2023-02-15T14:35:48.973Z,8.38
2023-02-15T14:38:27.562Z,9.00
2023-02-15T14:41:22.588Z,9.35
2023-02-15T14:47:23.874Z,8.55
2023-02-15T14:50:00.180Z,8.45
2023-02-15T14:52:27.465Z,9.77
2023-02-15T14:55:35.872Z,8.68
2023-02-15T14:58:12.057Z,8.90
2023-02-15T15:00:45.220Z,8.65
2023-02-15T15:12:11.598Z,9.85
2023-02-15T15:14:40.541Z,6.20
2023-02-15T15:17:10.900Z,7.80
2023-02-15T15:19:53.992Z,7.47
2023-02-15T15:22:25.839Z,8.90
2023-02-15T15:25:03.086Z,10.10
2023-02-15T15:27:55.577Z,10.40
2023-02-15T15:30:22.462Z,9.73
2023-02-15T15:32:56.313Z,11.02
2023-02-15T15:36:01.438Z,10.85
2023-02-15T15:39:02.930Z,10.30
2023-02-15T15:41:54.743Z,15.10
2023-02-15T15:44:59.434Z,12.32
2023-02-15T15:47:37.600Z,11.90
2023-02-15T15:50:15.584Z,17.05
2023-02-15T15:52:49.112Z,13.25
2023-02-15T15:55:22.959Z,14.68
2023-02-15T15:58:03.059Z,21.17
2023-02-15T16:00:54.724Z,25.85
2023-02-15T16:04:41.912Z,25.15
2023-02-15T16:08:47.722Z,23.10
2023-02-15T16:20:19.807Z,18.73
2023-02-15T16:23:26.392Z,16.58
2023-02-15T16:26:15.337Z,16.52
2023-02-15T16:29:14.999Z,11.75
2023-02-15T16:31:42.680Z,11.80
2023-02-15T16:34:29.241Z,11.02
2023-02-15T16:37:42.056Z,12.65
2023-02-15T16:40:45.652Z,12.95
2023-02-15T17:02:53.202Z,11.25
2023-02-15T17:05:21.057Z,13.02
2023-02-15T17:08:36.055Z,12.38
2023-02-15T17:14:31.381Z,13.15
2023-02-15T17:17:09.184Z,11.65
2023-02-15T17:20:15.169Z,9.85
2023-02-15T17:22:42.139Z,11.73
2023-02-15T17:25:23.366Z,11.57
2023-02-15T17:27:57.111Z,10.88
2023-02-15T17:30:39.892Z,10.93
2023-02-15T17:37:00.232Z,10.75
2023-02-15T17:48:44.617Z,10.68
2023-02-15T17:51:27.039Z,10.80
2023-02-15T17:54:35.141Z,10.35
2023-02-15T17:57:06.360Z,10.95
2023-02-15T18:00:22.787Z,10.65
2023-02-15T18:05:43.904Z,10.57
2023-02-15T18:08:35.689Z,10.48
2023-02-15T18:11:21.653Z,9.98
2023-02-15T18:13:48.733Z,10.15
2023-02-15T18:16:28.987Z,9.43
2023-02-15T18:19:07.862Z,9.13
2023-02-15T18:23:16.901Z,8.75
2023-02-15T18:24:29.086Z,10.02
2023-02-15T18:26:56.444Z,9.13
2023-02-15T18:29:23.524Z,11.80
2023-02-15T18:31:54.527Z,10.80
2023-02-15T18:34:29.085Z,9.77
2023-02-15T18:36:57.348Z,10.30
2023-02-15T18:40:15.127Z,12.55
2023-02-15T18:42:47.134Z,13.25
2023-02-15T18:45:16.785Z,13.25
2023-02-15T18:47:44.458Z,13.75
2023-02-15T18:50:13.500Z,14.48
2023-02-15T18:52:40.848Z,12.00
2023-02-15T18:55:20.372Z,11.95
2023-02-15T18:57:50.464Z,12.30
2023-02-15T19:00:19.873Z,12.48
2023-02-15T19:02:46.974Z,13.32
2023-02-15T19:05:14.302Z,13.82
2023-02-15T19:07:43.972Z,12.48
2023-02-15T19:10:32.919Z,11.93
2023-02-15T19:12:59.900Z,12.63
2023-02-15T19:15:33.072Z,10.57
2023-02-15T19:18:00.198Z,11.65
2023-02-15T19:20:31.606Z,10.23
2023-02-15T19:23:01.720Z,10.57
2023-02-15T19:25:31.285Z,9.98
2023-02-15T19:27:58.997Z,10.50
2023-02-15T19:30:30.070Z,9.15
2023-02-15T19:32:58.580Z,8.75
2023-02-15T19:35:30.721Z,9.82
2023-02-15T19:38:03.127Z,10.20
2023-02-15T19:40:32.641Z,10.30
2023-02-15T19:42:59.538Z,10.85
2023-02-15T19:45:28.938Z,10.55
2023-02-15T19:47:56.244Z,9.70
2023-02-15T19:50:25.709Z,9.93
2023-02-15T19:52:53.355Z,10.10
2023-02-15T19:55:29.186Z,9.77
2023-02-15T19:57:58.270Z,9.85
2023-02-15T20:00:39.757Z,11.52
2023-02-15T20:03:07.772Z,10.27
2023-02-15T20:06:00.237Z,12.82
2023-02-15T20:08:27.426Z,10.30
2023-02-15T20:10:58.262Z,10.18
2023-02-15T20:24:29.531Z,11.48
2023-02-15T20:26:56.967Z,11.60
2023-02-15T20:29:34.473Z,10.95
2023-02-15T20:32:01.730Z,10.75
2023-02-15T20:34:28.694Z,12.27
2023-02-15T20:36:55.881Z,13.43
2023-02-15T20:39:22.892Z,12.50
2023-02-15T20:41:49.797Z,12.05
2023-02-15T20:44:25.536Z,12.02
2023-02-15T20:46:55.312Z,10.55
2023-02-15T20:49:24.330Z,11.80
2023-02-15T20:51:53.622Z,13.43
2023-02-15T20:54:26.743Z,11.15
2023-02-15T20:56:54.557Z,11.80
2023-02-15T20:59:32.618Z,13.38
2023-02-15T21:02:24.292Z,11.43
2023-02-15T21:04:51.729Z,10.70
2023-02-15T21:07:20.751Z,10.48
2023-02-15T21:09:48.675Z,10.05
2023-02-15T21:12:18.065Z,11.05
2023-02-15T21:14:45.702Z,11.73
2023-02-15T21:17:17.010Z,10.60
2023-02-15T21:19:44.610Z,11.48
2023-02-15T21:22:14.260Z,10.60
2023-02-15T21:24:48.454Z,10.63
2023-02-15T21:27:16.225Z,11.10
2023-02-15T21:29:44.325Z,11.73
2023-02-15T21:32:12.222Z,9.55
2023-02-15T21:34:40.207Z,9.93
2023-02-15T21:37:26.580Z,11.40
2023-02-15T21:39:53.496Z,11.05
2023-02-15T21:42:39.091Z,10.98
2023-02-15T21:45:36.460Z,11.90
2023-02-15T21:48:04.710Z,13.55
2023-02-15T21:50:50.618Z,12.65
2023-02-15T21:53:27.297Z,11.60
2023-02-15T21:56:00.348Z,11.70
2023-02-15T21:58:30.731Z,9.55
2023-02-15T22:01:00.614Z,10.27
2023-02-15T22:03:36.528Z,10.48
2023-02-15T22:06:05.491Z,10.10
2023-02-15T22:08:34.502Z,10.82
2023-02-15T22:11:04.945Z,10.75
2023-02-15T22:13:35.910Z,10.40
2023-02-15T22:16:06.323Z,10.82
2023-02-15T22:18:35.690Z,10.90
2023-02-15T22:21:06.766Z,11.20
2023-02-15T22:23:34.568Z,11.55
2023-02-15T22:26:28.876Z,12.05
2023-02-15T22:29:00.659Z,10.95
2023-02-15T22:31:38.021Z,9.40
2023-02-15T22:34:28.563Z,9.98
2023-02-15T22:36:56.364Z,10.30
2023-02-15T22:39:24.390Z,9.40
2023-02-15T22:41:55.426Z,8.38
2023-02-15T22:44:25.983Z,10.90
2023-02-15T22:46:53.742Z,12.02
2023-02-15T22:49:23.502Z,12.82
2023-02-15T22:51:51.722Z,14.85
2023-02-15T22:54:21.836Z,13.52
2023-02-15T22:56:56.151Z,15.57
2023-02-15T22:59:29.146Z,15.32
2023-02-15T23:01:57.674Z,15.95
2023-02-15T23:04:28.106Z,16.63
2023-02-15T23:06:57.984Z,16.48
2023-02-15T23:09:25.129Z,15.90
2023-02-15T23:11:53.352Z,16.60
2023-02-15T23:14:36.009Z,11.15
2023-02-15T23:17:03.091Z,10.75
2023-02-15T23:19:30.306Z,9.95
2023-02-15T23:21:57.364Z,10.82
2023-02-15T23:24:29.455Z,10.23
2023-02-15T23:27:17.814Z,13.45
2023-02-15T23:29:44.808Z,14.65
2023-02-15T23:32:15.618Z,14.90
2023-02-15T23:34:43.934Z,15.80
2023-02-15T23:37:15.790Z,16.95
2023-02-15T23:40:01.084Z,14.15
2023-02-15T23:42:33.901Z,13.05
2023-02-15T23:45:02.000Z,9.43
2023-02-15T23:47:54.969Z,12.05
2023-02-15T23:50:30.065Z,10.95
2023-02-15T23:53:00.957Z,10.68
2023-02-15T23:55:37.117Z,10.55
2023-02-15T23:58:06.728Z,11.23
